createdAt,value
2019-03-27T00:02:42.529Z,100954.00
2019-03-27T00:13:24.046Z,100969.00
2019-03-27T00:24:06.239Z,101002.00
2019-03-27T00:34:50.798Z,101036.00
2019-03-27T00:45:33.756Z,101132.00
2019-03-27T00:56:15.967Z,101237.00
2019-03-27T01:06:59.580Z,101268.00
2019-03-27T01:17:45.859Z,101345.00
2019-03-27T01:28:28.990Z,101360.00
2019-03-27T01:39:13.436Z,101406.00
2019-03-27T01:49:56.610Z,101433.00
2019-03-27T02:00:41.128Z,101464.00
2019-03-27T02:11:26.408Z,101495.00
2019-03-27T02:22:11.240Z,101518.00
2019-03-27T02:32:55.135Z,101540.00
2019-03-27T02:43:40.234Z,101517.00
2019-03-27T02:54:25.367Z,101505.00
2019-03-27T03:05:10.271Z,101494.00
2019-03-27T03:15:54.473Z,101478.00
2019-03-27T03:26:38.745Z,101452.00
2019-03-27T03:37:24.821Z,101452.00
2019-03-27T03:48:07.860Z,101452.00
2019-03-27T03:58:52.108Z,101453.00
2019-03-27T04:09:36.730Z,101443.00
2019-03-27T04:20:20.365Z,101481.00
2019-03-27T04:31:05.471Z,101491.00
2019-03-27T04:41:48.711Z,101505.00
2019-03-27T04:52:33.267Z,101504.00
2019-03-27T05:03:17.722Z,101499.00
2019-03-27T05:14:03.929Z,101515.00
2019-03-27T05:24:46.915Z,101503.00
2019-03-27T05:35:25.057Z,101483.00
2019-03-27T05:46:08.520Z,101448.00
2019-03-27T05:56:53.098Z,101429.00
2019-03-27T06:07:37.243Z,101441.00
2019-03-27T06:18:22.540Z,101423.00
2019-03-27T06:29:07.065Z,101424.00
2019-03-27T06:39:48.913Z,101394.00
2019-03-27T06:50:29.541Z,101367.00
2019-03-27T07:01:13.279Z,101348.00
2019-03-27T07:11:57.704Z,101313.00
2019-03-27T07:22:41.302Z,101272.00
2019-03-27T07:33:20.767Z,101248.00
2019-03-27T07:44:06.024Z,101218.00
2019-03-27T07:54:50.002Z,101170.00
2019-03-27T08:05:34.095Z,101128.00
2019-03-27T08:16:16.628Z,101072.00
2019-03-27T08:27:00.144Z,101050.00
2019-03-27T08:37:44.607Z,101008.00
2019-03-27T08:48:30.516Z,100971.00
2019-03-27T08:59:14.447Z,100909.00
2019-03-27T09:09:59.680Z,100952.00
2019-03-27T09:20:44.216Z,100912.00
2019-03-27T09:31:29.084Z,100899.00
2019-03-27T09:42:11.231Z,100795.00
2019-03-27T09:52:49.788Z,100745.00
2019-03-27T10:03:35.204Z,100595.00
2019-03-27T10:14:20.224Z,100529.00
2019-03-27T10:25:05.053Z,100546.00
2019-03-27T10:35:49.490Z,100632.00
2019-03-27T10:46:34.278Z,100592.00
2019-03-27T10:57:11.180Z,100609.00
2019-03-27T11:07:56.456Z,100535.00
2019-03-27T11:18:32.722Z,100529.00
2019-03-27T11:29:12.797Z,100462.00
2019-03-27T11:39:53.304Z,100515.00
2019-03-27T11:50:44.131Z,100437.00
2019-03-27T12:01:10.735Z,100330.00
2019-03-27T12:11:52.057Z,100231.00
2019-03-27T12:22:26.959Z,100205.00
2019-03-27T12:33:02.719Z,100330.00
2019-03-27T12:43:41.974Z,100357.00
2019-03-27T12:54:24.185Z,100361.00
2019-03-27T13:04:55.205Z,100426.00
2019-03-27T13:15:30.866Z,100354.00
2019-03-27T13:26:11.040Z,100300.00
2019-03-27T13:36:55.779Z,100258.00
2019-03-27T13:47:39.315Z,100152.00
2019-03-27T13:58:16.579Z,100099.00
2019-03-27T14:08:58.120Z,99969.00
2019-03-27T14:19:34.714Z,100089.00
2019-03-27T14:30:13.951Z,100100.00
2019-03-27T14:40:55.127Z,100097.00
2019-03-27T14:51:35.288Z,100108.00
2019-03-27T15:02:08.635Z,100258.00
2019-03-27T15:12:49.177Z,100237.00
2019-03-27T15:23:25.118Z,100148.00
2019-03-27T15:34:03.966Z,100179.00
2019-03-27T15:44:40.540Z,100182.00
2019-03-27T15:55:19.413Z,100283.00
2019-03-27T16:05:59.014Z,100252.00
2019-03-27T16:16:39.514Z,100255.00
2019-03-27T16:27:10.082Z,100262.00
2019-03-27T16:37:55.719Z,100259.00
2019-03-27T16:48:38.314Z,100289.00
2019-03-27T16:59:20.080Z,100303.00
2019-03-27T17:10:01.856Z,100344.00
2019-03-27T17:20:45.007Z,100382.00
2019-03-27T17:31:24.888Z,100400.00
2019-03-27T17:42:03.208Z,100456.00
2019-03-27T17:52:42.996Z,100494.00
2019-03-27T18:03:22.129Z,100546.00
2019-03-27T18:14:02.015Z,100592.00
2019-03-27T18:24:42.699Z,100625.00
2019-03-27T18:35:19.489Z,100661.00
2019-03-27T18:45:51.875Z,100723.00
2019-03-27T18:56:27.350Z,100750.00
2019-03-27T19:07:02.680Z,100786.00
2019-03-27T19:17:41.827Z,100822.00
2019-03-27T19:28:17.207Z,100854.00
2019-03-27T19:38:54.791Z,100872.00
2019-03-27T19:49:28.641Z,100907.00
2019-03-27T20:00:08.430Z,100926.00
2019-03-27T20:10:47.413Z,100979.00
2019-03-27T20:21:25.049Z,101027.00
2019-03-27T20:31:56.605Z,101085.00
2019-03-27T20:42:34.517Z,101155.00
2019-03-27T20:53:08.874Z,101163.00
2019-03-27T21:03:46.712Z,101212.00
2019-03-27T21:14:26.010Z,101246.00
2019-03-27T21:25:08.979Z,101301.00
2019-03-27T21:35:44.854Z,101338.00
2019-03-27T21:46:22.748Z,101347.00
2019-03-27T21:57:00.959Z,101373.00
2019-03-27T22:07:34.696Z,101407.00
2019-03-27T22:18:12.929Z,101432.00
2019-03-27T22:28:48.265Z,101482.00
2019-03-27T22:39:30.315Z,101480.00
2019-03-27T22:50:10.680Z,101482.00
2019-03-27T23:00:51.864Z,101505.00
2019-03-27T23:11:29.823Z,101530.00
2019-03-27T23:22:12.107Z,101550.00
2019-03-27T23:32:52.592Z,101589.00
2019-03-27T23:43:32.697Z,101594.00
2019-03-27T23:54:08.539Z,101602.00
